sensor_id;sensor_type;location;lat;lon;timestamp;temperature;humidity
56332;DHT22;42237;53.340;6.812;2022-08-14T00:01:10;19.60;99.90
56332;DHT22;42237;53.340;6.812;2022-08-14T00:03:36;19.60;99.90
56332;DHT22;42237;53.340;6.812;2022-08-14T00:06:03;19.60;99.90
56332;DHT22;42237;53.340;6.812;2022-08-14T00:08:29;19.60;99.90
56332;DHT22;42237;53.340;6.812;2022-08-14T00:10:55;19.60;99.90
56332;DHT22;42237;53.340;6.812;2022-08-14T00:13:23;19.60;99.90
56332;DHT22;42237;53.340;6.812;2022-08-14T00:15:50;19.60;99.90
56332;DHT22;42237;53.340;6.812;2022-08-14T00:18:21;19.60;99.90
56332;DHT22;42237;53.340;6.812;2022-08-14T00:20:48;19.50;99.90
56332;DHT22;42237;53.340;6.812;2022-08-14T00:23:15;19.50;99.90
56332;DHT22;42237;53.340;6.812;2022-08-14T00:25:43;19.50;99.90
56332;DHT22;42237;53.340;6.812;2022-08-14T00:28:12;19.50;99.90
56332;DHT22;42237;53.340;6.812;2022-08-14T00:30:39;19.50;99.90
56332;DHT22;42237;53.340;6.812;2022-08-14T00:33:06;19.50;99.90
56332;DHT22;42237;53.340;6.812;2022-08-14T00:35:31;19.50;99.90
56332;DHT22;42237;53.340;6.812;2022-08-14T00:37:57;19.50;99.90
56332;DHT22;42237;53.340;6.812;2022-08-14T00:40:24;19.50;99.90
56332;DHT22;42237;53.340;6.812;2022-08-14T00:42:49;19.50;99.90
56332;DHT22;42237;53.340;6.812;2022-08-14T00:45:16;19.40;99.90
56332;DHT22;42237;53.340;6.812;2022-08-14T00:47:44;19.50;99.90
56332;DHT22;42237;53.340;6.812;2022-08-14T00:50:12;19.50;99.90
56332;DHT22;42237;53.340;6.812;2022-08-14T00:52:38;19.40;99.90
56332;DHT22;42237;53.340;6.812;2022-08-14T00:55:06;19.40;99.90
56332;DHT22;42237;53.340;6.812;2022-08-14T00:57:34;19.40;99.90
56332;DHT22;42237;53.340;6.812;2022-08-14T01:00:02;19.40;99.90
56332;DHT22;42237;53.340;6.812;2022-08-14T01:02:28;19.40;99.90
56332;DHT22;42237;53.340;6.812;2022-08-14T01:04:57;19.40;99.90
56332;DHT22;42237;53.340;6.812;2022-08-14T01:07:24;19.40;99.90
56332;DHT22;42237;53.340;6.812;2022-08-14T01:09:53;19.40;99.90
56332;DHT22;42237;53.340;6.812;2022-08-14T01:12:20;19.40;99.90
56332;DHT22;42237;53.340;6.812;2022-08-14T01:14:46;19.40;99.90
56332;DHT22;42237;53.340;6.812;2022-08-14T01:17:12;19.40;99.90
56332;DHT22;42237;53.340;6.812;2022-08-14T01:19:38;19.40;99.90
56332;DHT22;42237;53.340;6.812;2022-08-14T01:22:22;19.40;99.90
56332;DHT22;42237;53.340;6.812;2022-08-14T01:24:48;19.40;99.90
56332;DHT22;42237;53.340;6.812;2022-08-14T01:27:16;19.40;99.90
56332;DHT22;42237;53.340;6.812;2022-08-14T01:29:45;19.40;99.90
56332;DHT22;42237;53.340;6.812;2022-08-14T01:32:11;19.40;99.90
56332;DHT22;42237;53.340;6.812;2022-08-14T01:34:37;19.40;99.90
56332;DHT22;42237;53.340;6.812;2022-08-14T01:37:03;19.30;99.90
56332;DHT22;42237;53.340;6.812;2022-08-14T01:39:29;19.30;99.90
56332;DHT22;42237;53.340;6.812;2022-08-14T01:41:55;19.30;99.90
56332;DHT22;42237;53.340;6.812;2022-08-14T01:44:23;19.30;99.90
56332;DHT22;42237;53.340;6.812;2022-08-14T01:46:59;19.30;99.90
56332;DHT22;42237;53.340;6.812;2022-08-14T01:49:26;19.30;99.90
56332;DHT22;42237;53.340;6.812;2022-08-14T01:51:52;19.30;99.90
56332;DHT22;42237;53.340;6.812;2022-08-14T01:54:22;19.20;99.90
56332;DHT22;42237;53.340;6.812;2022-08-14T01:56:53;19.20;99.90
56332;DHT22;42237;53.340;6.812;2022-08-14T01:59:29;19.20;99.90
56332;DHT22;42237;53.340;6.812;2022-08-14T02:02:01;19.20;99.90
56332;DHT22;42237;53.340;6.812;2022-08-14T02:04:33;19.20;99.90
56332;DHT22;42237;53.340;6.812;2022-08-14T02:06:59;19.20;99.90
56332;DHT22;42237;53.340;6.812;2022-08-14T02:09:27;19.20;99.90
56332;DHT22;42237;53.340;6.812;2022-08-14T02:11:54;19.20;99.90
56332;DHT22;42237;53.340;6.812;2022-08-14T02:14:20;19.20;99.90
56332;DHT22;42237;53.340;6.812;2022-08-14T02:16:49;19.20;99.90
56332;DHT22;42237;53.340;6.812;2022-08-14T02:19:20;19.20;99.90
56332;DHT22;42237;53.340;6.812;2022-08-14T02:21:49;19.10;99.90
56332;DHT22;42237;53.340;6.812;2022-08-14T02:24:16;19.10;99.90
56332;DHT22;42237;53.340;6.812;2022-08-14T02:26:43;19.10;99.90
56332;DHT22;42237;53.340;6.812;2022-08-14T02:29:18;19.10;99.90
56332;DHT22;42237;53.340;6.812;2022-08-14T02:31:51;19.10;99.90
56332;DHT22;42237;53.340;6.812;2022-08-14T02:34:19;19.10;99.90
56332;DHT22;42237;53.340;6.812;2022-08-14T02:36:50;19.10;99.90
56332;DHT22;42237;53.340;6.812;2022-08-14T02:39:17;19.10;99.90
56332;DHT22;42237;53.340;6.812;2022-08-14T02:41:43;19.10;99.90
56332;DHT22;42237;53.340;6.812;2022-08-14T02:44:10;19.10;99.90
56332;DHT22;42237;53.340;6.812;2022-08-14T02:46:37;19.10;99.90
56332;DHT22;42237;53.340;6.812;2022-08-14T02:49:04;19.10;99.90
56332;DHT22;42237;53.340;6.812;2022-08-14T02:51:32;19.10;99.90
56332;DHT22;42237;53.340;6.812;2022-08-14T02:53:58;19.10;99.90
56332;DHT22;42237;53.340;6.812;2022-08-14T02:56:26;19.10;99.90
56332;DHT22;42237;53.340;6.812;2022-08-14T02:58:55;19.10;99.90
56332;DHT22;42237;53.340;6.812;2022-08-14T03:01:22;19.10;99.90
56332;DHT22;42237;53.340;6.812;2022-08-14T03:03:49;19.00;99.90
56332;DHT22;42237;53.340;6.812;2022-08-14T03:06:17;19.00;99.90
56332;DHT22;42237;53.340;6.812;2022-08-14T03:08:45;19.00;99.90
56332;DHT22;42237;53.340;6.812;2022-08-14T03:11:12;19.00;99.90
56332;DHT22;42237;53.340;6.812;2022-08-14T03:13:44;19.00;99.90
56332;DHT22;42237;53.340;6.812;2022-08-14T03:16:13;19.00;99.90
56332;DHT22;42237;53.340;6.812;2022-08-14T03:18:41;19.00;99.90
56332;DHT22;42237;53.340;6.812;2022-08-14T03:21:10;19.00;99.90
56332;DHT22;42237;53.340;6.812;2022-08-14T03:23:38;19.00;99.90
56332;DHT22;42237;53.340;6.812;2022-08-14T03:26:09;18.90;99.90
56332;DHT22;42237;53.340;6.812;2022-08-14T03:28:36;18.90;99.90
56332;DHT22;42237;53.340;6.812;2022-08-14T03:31:05;18.90;99.90
56332;DHT22;42237;53.340;6.812;2022-08-14T03:33:31;18.90;99.90
56332;DHT22;42237;53.340;6.812;2022-08-14T03:35:57;18.90;99.90
56332;DHT22;42237;53.340;6.812;2022-08-14T03:38:23;18.90;99.90
56332;DHT22;42237;53.340;6.812;2022-08-14T03:40:49;18.80;99.90
56332;DHT22;42237;53.340;6.812;2022-08-14T03:43:15;18.80;99.90
56332;DHT22;42237;53.340;6.812;2022-08-14T03:45:41;18.80;99.90
56332;DHT22;42237;53.340;6.812;2022-08-14T03:48:14;18.80;99.90
56332;DHT22;42237;53.340;6.812;2022-08-14T03:50:49;18.80;99.90
56332;DHT22;42237;53.340;6.812;2022-08-14T03:53:17;18.80;99.90
56332;DHT22;42237;53.340;6.812;2022-08-14T03:55:45;18.80;99.90
56332;DHT22;42237;53.340;6.812;2022-08-14T03:58:11;18.80;99.90
56332;DHT22;42237;53.340;6.812;2022-08-14T04:00:37;18.80;99.90
56332;DHT22;42237;53.340;6.812;2022-08-14T04:03:05;18.80;99.90
56332;DHT22;42237;53.340;6.812;2022-08-14T04:05:32;18.80;99.90
56332;DHT22;42237;53.340;6.812;2022-08-14T04:07:58;18.80;99.90
56332;DHT22;42237;53.340;6.812;2022-08-14T04:10:25;18.80;99.90
56332;DHT22;42237;53.340;6.812;2022-08-14T04:12:51;18.80;99.90
56332;DHT22;42237;53.340;6.812;2022-08-14T04:15:16;18.70;99.90
56332;DHT22;42237;53.340;6.812;2022-08-14T04:17:46;18.70;99.90
56332;DHT22;42237;53.340;6.812;2022-08-14T04:20:12;18.70;99.90
56332;DHT22;42237;53.340;6.812;2022-08-14T04:22:38;18.70;99.90
56332;DHT22;42237;53.340;6.812;2022-08-14T04:25:08;18.70;99.90
56332;DHT22;42237;53.340;6.812;2022-08-14T04:27:35;18.70;99.90
56332;DHT22;42237;53.340;6.812;2022-08-14T04:30:02;18.70;99.90
56332;DHT22;42237;53.340;6.812;2022-08-14T04:32:30;18.80;99.90
56332;DHT22;42237;53.340;6.812;2022-08-14T04:35:02;18.80;99.90
56332;DHT22;42237;53.340;6.812;2022-08-14T04:37:27;18.80;99.90
56332;DHT22;42237;53.340;6.812;2022-08-14T04:40:13;18.80;99.90
56332;DHT22;42237;53.340;6.812;2022-08-14T04:42:57;18.80;99.90
56332;DHT22;42237;53.340;6.812;2022-08-14T04:45:42;18.80;99.90
56332;DHT22;42237;53.340;6.812;2022-08-14T04:48:09;18.80;99.90
56332;DHT22;42237;53.340;6.812;2022-08-14T04:50:48;18.80;99.90
56332;DHT22;42237;53.340;6.812;2022-08-14T04:53:16;18.80;99.90
56332;DHT22;42237;53.340;6.812;2022-08-14T04:55:44;18.80;99.90
56332;DHT22;42237;53.340;6.812;2022-08-14T04:58:16;18.80;99.90
56332;DHT22;42237;53.340;6.812;2022-08-14T05:00:43;18.80;99.90
56332;DHT22;42237;53.340;6.812;2022-08-14T05:03:09;18.90;99.90
56332;DHT22;42237;53.340;6.812;2022-08-14T05:05:35;18.90;99.90
56332;DHT22;42237;53.340;6.812;2022-08-14T05:08:09;18.90;99.90
56332;DHT22;42237;53.340;6.812;2022-08-14T05:10:39;18.90;99.90
56332;DHT22;42237;53.340;6.812;2022-08-14T05:13:07;19.00;99.90
56332;DHT22;42237;53.340;6.812;2022-08-14T05:15:34;19.00;99.90
56332;DHT22;42237;53.340;6.812;2022-08-14T05:18:08;19.00;99.90
56332;DHT22;42237;53.340;6.812;2022-08-14T05:20:41;19.00;99.90
56332;DHT22;42237;53.340;6.812;2022-08-14T05:23:19;19.10;99.90
56332;DHT22;42237;53.340;6.812;2022-08-14T05:25:47;19.20;99.90
56332;DHT22;42237;53.340;6.812;2022-08-14T05:28:19;19.20;99.90
56332;DHT22;42237;53.340;6.812;2022-08-14T05:30:47;19.20;99.90
56332;DHT22;42237;53.340;6.812;2022-08-14T05:33:14;19.30;99.90
56332;DHT22;42237;53.340;6.812;2022-08-14T05:35:41;19.40;99.90
56332;DHT22;42237;53.340;6.812;2022-08-14T05:38:10;19.40;99.90
56332;DHT22;42237;53.340;6.812;2022-08-14T05:40:37;19.50;99.90
56332;DHT22;42237;53.340;6.812;2022-08-14T05:43:03;19.50;99.90
56332;DHT22;42237;53.340;6.812;2022-08-14T05:45:28;19.60;99.90
56332;DHT22;42237;53.340;6.812;2022-08-14T05:47:54;19.70;99.90
56332;DHT22;42237;53.340;6.812;2022-08-14T05:50:19;19.70;99.90
56332;DHT22;42237;53.340;6.812;2022-08-14T05:52:47;19.80;99.90
56332;DHT22;42237;53.340;6.812;2022-08-14T05:55:14;19.80;99.90
56332;DHT22;42237;53.340;6.812;2022-08-14T05:57:57;19.90;99.90
56332;DHT22;42237;53.340;6.812;2022-08-14T06:00:26;19.90;99.90
56332;DHT22;42237;53.340;6.812;2022-08-14T06:02:53;20.00;99.90
56332;DHT22;42237;53.340;6.812;2022-08-14T06:05:22;20.10;99.90
56332;DHT22;42237;53.340;6.812;2022-08-14T06:07:48;20.10;99.90
56332;DHT22;42237;53.340;6.812;2022-08-14T06:10:15;20.20;99.90
56332;DHT22;42237;53.340;6.812;2022-08-14T06:12:41;20.30;99.90
56332;DHT22;42237;53.340;6.812;2022-08-14T06:15:08;20.30;99.90
56332;DHT22;42237;53.340;6.812;2022-08-14T06:17:49;20.40;99.90
56332;DHT22;42237;53.340;6.812;2022-08-14T06:20:15;20.50;99.90
56332;DHT22;42237;53.340;6.812;2022-08-14T06:22:42;20.50;99.90
56332;DHT22;42237;53.340;6.812;2022-08-14T06:25:10;20.60;99.90
56332;DHT22;42237;53.340;6.812;2022-08-14T06:27:45;20.60;99.90
56332;DHT22;42237;53.340;6.812;2022-08-14T06:30:16;20.70;99.90
56332;DHT22;42237;53.340;6.812;2022-08-14T06:32:42;20.70;99.90
56332;DHT22;42237;53.340;6.812;2022-08-14T06:35:11;20.80;99.90
56332;DHT22;42237;53.340;6.812;2022-08-14T06:37:44;20.80;99.90
56332;DHT22;42237;53.340;6.812;2022-08-14T06:40:11;20.80;99.90
56332;DHT22;42237;53.340;6.812;2022-08-14T06:42:39;20.90;99.90
56332;DHT22;42237;53.340;6.812;2022-08-14T06:45:06;20.90;99.90
56332;DHT22;42237;53.340;6.812;2022-08-14T06:47:36;20.90;99.90
56332;DHT22;42237;53.340;6.812;2022-08-14T06:50:06;21.00;99.90
56332;DHT22;42237;53.340;6.812;2022-08-14T06:52:32;21.10;99.90
56332;DHT22;42237;53.340;6.812;2022-08-14T06:54:57;21.10;99.90
56332;DHT22;42237;53.340;6.812;2022-08-14T06:57:24;21.20;99.90
56332;DHT22;42237;53.340;6.812;2022-08-14T06:59:50;21.30;99.90
56332;DHT22;42237;53.340;6.812;2022-08-14T07:02:16;21.30;99.90
56332;DHT22;42237;53.340;6.812;2022-08-14T07:05:11;21.40;99.90
56332;DHT22;42237;53.340;6.812;2022-08-14T07:10:54;21.50;99.90
56332;DHT22;42237;53.340;6.812;2022-08-14T07:13:20;21.50;99.90
56332;DHT22;42237;53.340;6.812;2022-08-14T07:15:48;21.60;99.90
56332;DHT22;42237;53.340;6.812;2022-08-14T07:18:26;21.70;99.90
56332;DHT22;42237;53.340;6.812;2022-08-14T07:20:54;21.80;99.90
56332;DHT22;42237;53.340;6.812;2022-08-14T07:23:20;21.80;99.90
56332;DHT22;42237;53.340;6.812;2022-08-14T07:25:50;21.80;99.90
56332;DHT22;42237;53.340;6.812;2022-08-14T07:28:18;21.90;99.90
56332;DHT22;42237;53.340;6.812;2022-08-14T07:30:45;22.00;99.90
56332;DHT22;42237;53.340;6.812;2022-08-14T07:33:11;22.00;99.90
56332;DHT22;42237;53.340;6.812;2022-08-14T07:35:38;22.10;99.90
56332;DHT22;42237;53.340;6.812;2022-08-14T07:38:05;22.20;99.90
56332;DHT22;42237;53.340;6.812;2022-08-14T07:40:31;22.30;99.90
56332;DHT22;42237;53.340;6.812;2022-08-14T07:42:57;22.40;99.90
56332;DHT22;42237;53.340;6.812;2022-08-14T07:45:25;22.40;99.90
56332;DHT22;42237;53.340;6.812;2022-08-14T07:47:50;22.40;99.90
56332;DHT22;42237;53.340;6.812;2022-08-14T07:50:18;22.50;99.90
56332;DHT22;42237;53.340;6.812;2022-08-14T07:52:47;22.50;99.90
56332;DHT22;42237;53.340;6.812;2022-08-14T07:55:14;22.60;99.90
56332;DHT22;42237;53.340;6.812;2022-08-14T07:57:44;22.60;99.90
56332;DHT22;42237;53.340;6.812;2022-08-14T08:00:14;22.70;99.90
56332;DHT22;42237;53.340;6.812;2022-08-14T08:02:43;22.70;99.90
56332;DHT22;42237;53.340;6.812;2022-08-14T08:05:10;22.80;99.90
56332;DHT22;42237;53.340;6.812;2022-08-14T08:07:37;22.80;99.90
56332;DHT22;42237;53.340;6.812;2022-08-14T08:10:13;22.80;99.90
56332;DHT22;42237;53.340;6.812;2022-08-14T08:13:02;22.90;99.90
56332;DHT22;42237;53.340;6.812;2022-08-14T08:15:31;22.90;99.90
56332;DHT22;42237;53.340;6.812;2022-08-14T08:17:59;23.00;99.90
56332;DHT22;42237;53.340;6.812;2022-08-14T08:20:30;23.00;99.90
56332;DHT22;42237;53.340;6.812;2022-08-14T08:22:57;23.10;99.90
56332;DHT22;42237;53.340;6.812;2022-08-14T08:25:25;23.10;99.90
56332;DHT22;42237;53.340;6.812;2022-08-14T08:28:02;23.10;99.90
56332;DHT22;42237;53.340;6.812;2022-08-14T08:30:30;23.20;99.90
56332;DHT22;42237;53.340;6.812;2022-08-14T08:32:58;23.30;99.90
56332;DHT22;42237;53.340;6.812;2022-08-14T08:35:28;23.30;99.90
56332;DHT22;42237;53.340;6.812;2022-08-14T08:38:06;23.30;99.90
56332;DHT22;42237;53.340;6.812;2022-08-14T08:40:38;23.40;99.90
56332;DHT22;42237;53.340;6.812;2022-08-14T08:43:16;23.40;99.90
56332;DHT22;42237;53.340;6.812;2022-08-14T08:45:43;23.40;99.90
56332;DHT22;42237;53.340;6.812;2022-08-14T08:48:08;23.50;99.90
56332;DHT22;42237;53.340;6.812;2022-08-14T08:50:37;23.60;99.90
56332;DHT22;42237;53.340;6.812;2022-08-14T08:53:09;23.60;99.90
56332;DHT22;42237;53.340;6.812;2022-08-14T08:55:40;23.60;99.90
56332;DHT22;42237;53.340;6.812;2022-08-14T08:58:11;23.70;99.90
56332;DHT22;42237;53.340;6.812;2022-08-14T09:00:38;23.80;99.90
56332;DHT22;42237;53.340;6.812;2022-08-14T09:03:10;23.80;99.90
56332;DHT22;42237;53.340;6.812;2022-08-14T09:05:48;23.90;99.90
56332;DHT22;42237;53.340;6.812;2022-08-14T09:08:19;24.00;99.90
56332;DHT22;42237;53.340;6.812;2022-08-14T09:10:46;24.00;99.90
56332;DHT22;42237;53.340;6.812;2022-08-14T09:13:16;24.10;99.90
56332;DHT22;42237;53.340;6.812;2022-08-14T09:15:44;24.10;99.90
56332;DHT22;42237;53.340;6.812;2022-08-14T09:18:12;24.20;99.90
56332;DHT22;42237;53.340;6.812;2022-08-14T09:20:47;24.20;99.90
56332;DHT22;42237;53.340;6.812;2022-08-14T09:23:13;24.20;99.90
56332;DHT22;42237;53.340;6.812;2022-08-14T09:25:44;24.30;99.90
56332;DHT22;42237;53.340;6.812;2022-08-14T09:28:10;24.30;99.90
56332;DHT22;42237;53.340;6.812;2022-08-14T09:30:51;24.40;99.90
56332;DHT22;42237;53.340;6.812;2022-08-14T09:38:50;24.40;99.90
56332;DHT22;42237;53.340;6.812;2022-08-14T09:46:39;24.60;99.90
56332;DHT22;42237;53.340;6.812;2022-08-14T09:49:06;24.60;99.90
56332;DHT22;42237;53.340;6.812;2022-08-14T09:51:33;24.60;99.90
56332;DHT22;42237;53.340;6.812;2022-08-14T09:54:03;24.70;99.90
56332;DHT22;42237;53.340;6.812;2022-08-14T09:56:49;24.80;99.90
56332;DHT22;42237;53.340;6.812;2022-08-14T09:59:17;24.80;99.90
56332;DHT22;42237;53.340;6.812;2022-08-14T10:01:47;24.80;99.90
56332;DHT22;42237;53.340;6.812;2022-08-14T10:04:24;24.80;99.90
56332;DHT22;42237;53.340;6.812;2022-08-14T10:06:53;24.90;99.90
56332;DHT22;42237;53.340;6.812;2022-08-14T10:09:19;25.00;99.90
56332;DHT22;42237;53.340;6.812;2022-08-14T10:11:58;25.00;99.90
56332;DHT22;42237;53.340;6.812;2022-08-14T10:14:27;25.10;99.90
56332;DHT22;42237;53.340;6.812;2022-08-14T10:16:55;25.10;99.90
56332;DHT22;42237;53.340;6.812;2022-08-14T10:19:26;25.10;99.90
56332;DHT22;42237;53.340;6.812;2022-08-14T10:22:02;25.20;99.90
56332;DHT22;42237;53.340;6.812;2022-08-14T10:24:37;25.20;99.90
56332;DHT22;42237;53.340;6.812;2022-08-14T10:27:15;25.30;99.90
56332;DHT22;42237;53.340;6.812;2022-08-14T10:29:47;25.30;99.90
56332;DHT22;42237;53.340;6.812;2022-08-14T10:32:13;25.30;99.90
56332;DHT22;42237;53.340;6.812;2022-08-14T10:34:39;25.40;99.90
56332;DHT22;42237;53.340;6.812;2022-08-14T10:37:08;25.40;99.90
56332;DHT22;42237;53.340;6.812;2022-08-14T10:39:37;25.50;99.90
56332;DHT22;42237;53.340;6.812;2022-08-14T10:42:05;25.50;99.90
56332;DHT22;42237;53.340;6.812;2022-08-14T10:44:35;25.50;99.90
56332;DHT22;42237;53.340;6.812;2022-08-14T10:47:04;25.60;99.90
56332;DHT22;42237;53.340;6.812;2022-08-14T10:49:35;25.60;99.90
56332;DHT22;42237;53.340;6.812;2022-08-14T10:52:07;25.70;99.90
56332;DHT22;42237;53.340;6.812;2022-08-14T10:54:45;25.70;99.90
56332;DHT22;42237;53.340;6.812;2022-08-14T10:57:21;25.80;99.90
56332;DHT22;42237;53.340;6.812;2022-08-14T10:59:50;25.80;99.90
56332;DHT22;42237;53.340;6.812;2022-08-14T11:05:16;26.00;99.90
56332;DHT22;42237;53.340;6.812;2022-08-14T11:10:38;26.00;99.90
56332;DHT22;42237;53.340;6.812;2022-08-14T11:13:04;26.10;99.90
56332;DHT22;42237;53.340;6.812;2022-08-14T11:15:32;26.10;99.90
56332;DHT22;42237;53.340;6.812;2022-08-14T11:17:58;26.20;99.90
56332;DHT22;42237;53.340;6.812;2022-08-14T11:20:29;26.20;99.90
56332;DHT22;42237;53.340;6.812;2022-08-14T11:22:57;26.20;99.90
56332;DHT22;42237;53.340;6.812;2022-08-14T11:25:26;26.30;99.90
56332;DHT22;42237;53.340;6.812;2022-08-14T11:27:55;26.30;99.90
56332;DHT22;42237;53.340;6.812;2022-08-14T11:30:24;26.40;99.90
56332;DHT22;42237;53.340;6.812;2022-08-14T11:32:51;26.40;99.90
56332;DHT22;42237;53.340;6.812;2022-08-14T11:35:26;26.50;99.90
56332;DHT22;42237;53.340;6.812;2022-08-14T11:38:00;26.50;99.90
56332;DHT22;42237;53.340;6.812;2022-08-14T11:40:31;26.50;99.90
56332;DHT22;42237;53.340;6.812;2022-08-14T11:43:00;26.60;99.90
56332;DHT22;42237;53.340;6.812;2022-08-14T11:45:28;26.70;99.90
56332;DHT22;42237;53.340;6.812;2022-08-14T11:50:39;26.80;99.90
56332;DHT22;42237;53.340;6.812;2022-08-14T11:53:06;26.80;99.90
56332;DHT22;42237;53.340;6.812;2022-08-14T11:55:37;26.80;99.90
56332;DHT22;42237;53.340;6.812;2022-08-14T11:58:08;26.80;99.90
56332;DHT22;42237;53.340;6.812;2022-08-14T12:00:45;26.90;99.90
56332;DHT22;42237;53.340;6.812;2022-08-14T12:03:11;26.90;99.90
56332;DHT22;42237;53.340;6.812;2022-08-14T12:05:38;27.00;99.90
56332;DHT22;42237;53.340;6.812;2022-08-14T12:08:05;27.10;99.90
56332;DHT22;42237;53.340;6.812;2022-08-14T12:10:40;27.20;99.90
56332;DHT22;42237;53.340;6.812;2022-08-14T12:13:17;27.20;99.90
56332;DHT22;42237;53.340;6.812;2022-08-14T12:15:45;27.30;99.90
56332;DHT22;42237;53.340;6.812;2022-08-14T12:18:13;27.30;99.90
56332;DHT22;42237;53.340;6.812;2022-08-14T12:20:42;27.40;99.90
56332;DHT22;42237;53.340;6.812;2022-08-14T12:23:22;27.60;99.90
56332;DHT22;42237;53.340;6.812;2022-08-14T12:25:49;27.70;99.60
56332;DHT22;42237;53.340;6.812;2022-08-14T12:28:25;27.80;99.60
56332;DHT22;42237;53.340;6.812;2022-08-14T12:30:51;27.80;98.60
56332;DHT22;42237;53.340;6.812;2022-08-14T12:33:38;27.70;98.30
56332;DHT22;42237;53.340;6.812;2022-08-14T12:36:08;27.80;98.40
56332;DHT22;42237;53.340;6.812;2022-08-14T12:38:41;27.80;98.40
56332;DHT22;42237;53.340;6.812;2022-08-14T12:41:20;27.80;98.50
56332;DHT22;42237;53.340;6.812;2022-08-14T12:43:51;27.90;98.90
56332;DHT22;42237;53.340;6.812;2022-08-14T12:46:39;27.90;98.70
56332;DHT22;42237;53.340;6.812;2022-08-14T12:49:13;28.00;98.40
56332;DHT22;42237;53.340;6.812;2022-08-14T12:51:41;28.00;98.50
56332;DHT22;42237;53.340;6.812;2022-08-14T12:54:18;28.00;98.20
56332;DHT22;42237;53.340;6.812;2022-08-14T12:56:47;28.00;97.20
56332;DHT22;42237;53.340;6.812;2022-08-14T12:59:14;28.00;97.20
56332;DHT22;42237;53.340;6.812;2022-08-14T13:01:41;28.00;97.20
56332;DHT22;42237;53.340;6.812;2022-08-14T13:04:11;28.00;97.00
56332;DHT22;42237;53.340;6.812;2022-08-14T13:06:51;27.90;96.70
56332;DHT22;42237;53.340;6.812;2022-08-14T13:09:17;27.80;96.80
56332;DHT22;42237;53.340;6.812;2022-08-14T13:11:45;27.90;96.90
56332;DHT22;42237;53.340;6.812;2022-08-14T13:14:17;27.90;97.00
56332;DHT22;42237;53.340;6.812;2022-08-14T13:16:44;27.90;96.40
56332;DHT22;42237;53.340;6.812;2022-08-14T13:19:15;27.90;96.20
56332;DHT22;42237;53.340;6.812;2022-08-14T13:21:42;27.80;96.30
56332;DHT22;42237;53.340;6.812;2022-08-14T13:24:08;27.80;96.40
56332;DHT22;42237;53.340;6.812;2022-08-14T13:26:52;27.70;96.60
56332;DHT22;42237;53.340;6.812;2022-08-14T13:29:26;27.70;96.20
56332;DHT22;42237;53.340;6.812;2022-08-14T13:31:58;27.70;96.60
56332;DHT22;42237;53.340;6.812;2022-08-14T13:34:27;27.80;96.70
56332;DHT22;42237;53.340;6.812;2022-08-14T13:36:56;27.80;96.20
56332;DHT22;42237;53.340;6.812;2022-08-14T13:39:23;27.80;96.20
56332;DHT22;42237;53.340;6.812;2022-08-14T13:41:49;27.70;96.00
56332;DHT22;42237;53.340;6.812;2022-08-14T13:44:16;27.70;96.00
56332;DHT22;42237;53.340;6.812;2022-08-14T13:46:45;27.70;96.20
56332;DHT22;42237;53.340;6.812;2022-08-14T13:49:12;27.80;96.40
56332;DHT22;42237;53.340;6.812;2022-08-14T13:51:42;27.80;96.10
56332;DHT22;42237;53.340;6.812;2022-08-14T13:54:15;27.80;95.80
56332;DHT22;42237;53.340;6.812;2022-08-14T13:56:41;27.80;95.80
56332;DHT22;42237;53.340;6.812;2022-08-14T13:59:08;27.80;95.90
56332;DHT22;42237;53.340;6.812;2022-08-14T14:01:35;27.80;95.90
56332;DHT22;42237;53.340;6.812;2022-08-14T14:04:03;27.80;96.10
56332;DHT22;42237;53.340;6.812;2022-08-14T14:06:30;27.80;96.20
56332;DHT22;42237;53.340;6.812;2022-08-14T14:08:57;27.90;96.40
56332;DHT22;42237;53.340;6.812;2022-08-14T14:11:24;28.00;96.50
56332;DHT22;42237;53.340;6.812;2022-08-14T14:13:52;28.10;96.60
56332;DHT22;42237;53.340;6.812;2022-08-14T14:16:19;28.20;96.30
56332;DHT22;42237;53.340;6.812;2022-08-14T14:18:50;28.30;96.00
56332;DHT22;42237;53.340;6.812;2022-08-14T14:21:22;28.50;96.30
56332;DHT22;42237;53.340;6.812;2022-08-14T14:23:48;28.60;96.30
56332;DHT22;42237;53.340;6.812;2022-08-14T14:26:16;28.70;95.80
56332;DHT22;42237;53.340;6.812;2022-08-14T14:28:45;28.70;95.20
56332;DHT22;42237;53.340;6.812;2022-08-14T14:31:18;28.80;95.10
56332;DHT22;42237;53.340;6.812;2022-08-14T14:33:51;28.70;94.10
56332;DHT22;42237;53.340;6.812;2022-08-14T14:36:22;28.70;94.00
56332;DHT22;42237;53.340;6.812;2022-08-14T14:38:54;28.70;94.10
56332;DHT22;42237;53.340;6.812;2022-08-14T14:41:26;28.80;93.80
56332;DHT22;42237;53.340;6.812;2022-08-14T14:43:54;28.90;93.80
56332;DHT22;42237;53.340;6.812;2022-08-14T14:46:22;29.00;93.90
56332;DHT22;42237;53.340;6.812;2022-08-14T14:48:49;29.10;93.40
56332;DHT22;42237;53.340;6.812;2022-08-14T14:51:17;29.20;93.00
56332;DHT22;42237;53.340;6.812;2022-08-14T14:53:44;29.30;92.80
56332;DHT22;42237;53.340;6.812;2022-08-14T14:56:11;29.40;92.10
56332;DHT22;42237;53.340;6.812;2022-08-14T14:58:39;29.60;91.70
56332;DHT22;42237;53.340;6.812;2022-08-14T15:01:06;29.70;91.50
56332;DHT22;42237;53.340;6.812;2022-08-14T15:03:37;29.80;91.40
56332;DHT22;42237;53.340;6.812;2022-08-14T15:06:04;30.00;91.20
56332;DHT22;42237;53.340;6.812;2022-08-14T15:08:30;30.10;90.90
56332;DHT22;42237;53.340;6.812;2022-08-14T15:10:57;30.20;90.80
56332;DHT22;42237;53.340;6.812;2022-08-14T15:13:27;30.30;90.50
56332;DHT22;42237;53.340;6.812;2022-08-14T15:15:53;30.50;90.20
56332;DHT22;42237;53.340;6.812;2022-08-14T15:18:21;30.60;89.60
56332;DHT22;42237;53.340;6.812;2022-08-14T15:20:48;30.80;89.50
56332;DHT22;42237;53.340;6.812;2022-08-14T15:23:13;30.90;88.80
56332;DHT22;42237;53.340;6.812;2022-08-14T15:25:41;31.00;87.90
56332;DHT22;42237;53.340;6.812;2022-08-14T15:28:09;31.00;87.10
56332;DHT22;42237;53.340;6.812;2022-08-14T15:30:42;31.20;87.00
56332;DHT22;42237;53.340;6.812;2022-08-14T15:33:11;31.30;86.40
56332;DHT22;42237;53.340;6.812;2022-08-14T15:35:38;31.50;85.60
56332;DHT22;42237;53.340;6.812;2022-08-14T15:38:07;31.60;84.20
56332;DHT22;42237;53.340;6.812;2022-08-14T15:40:39;31.80;84.50
56332;DHT22;42237;53.340;6.812;2022-08-14T15:43:07;31.90;83.30
56332;DHT22;42237;53.340;6.812;2022-08-14T15:45:37;32.00;83.10
56332;DHT22;42237;53.340;6.812;2022-08-14T15:48:06;31.90;83.00
56332;DHT22;42237;53.340;6.812;2022-08-14T15:50:32;31.70;82.20
56332;DHT22;42237;53.340;6.812;2022-08-14T15:53:00;31.40;82.30
56332;DHT22;42237;53.340;6.812;2022-08-14T15:55:26;31.10;83.00
56332;DHT22;42237;53.340;6.812;2022-08-14T15:57:52;30.70;83.10
56332;DHT22;42237;53.340;6.812;2022-08-14T16:00:18;30.40;83.90
56332;DHT22;42237;53.340;6.812;2022-08-14T16:03:03;30.20;84.80
56332;DHT22;42237;53.340;6.812;2022-08-14T16:05:32;29.90;85.40